createdAt,value
2022-10-16T07:13:03.107Z,15.00
2022-10-16T07:15:41.024Z,15.02
2022-10-16T07:18:17.752Z,15.01
2022-10-16T07:20:54.771Z,15.03
2022-10-16T07:23:31.876Z,15.06
2022-10-16T07:26:10.213Z,15.08
2022-10-16T07:28:50.024Z,15.10
2022-10-16T07:31:28.292Z,15.07
2022-10-16T07:34:05.551Z,15.08
2022-10-16T07:36:43.911Z,15.08
2022-10-16T07:39:22.087Z,15.13
2022-10-16T07:42:00.317Z,15.11
2022-10-16T07:44:40.438Z,15.14
2022-10-16T07:47:18.105Z,15.15
2022-10-16T07:49:55.195Z,15.15
2022-10-16T07:52:32.892Z,15.17
2022-10-16T07:55:11.384Z,15.17
2022-10-16T07:57:48.552Z,15.19
2022-10-16T08:00:28.104Z,15.24
2022-10-16T08:03:05.599Z,15.22
2022-10-16T08:05:42.570Z,15.25
2022-10-16T08:08:22.201Z,15.26
2022-10-16T08:10:59.721Z,15.26
2022-10-16T08:13:37.302Z,15.30
2022-10-16T08:16:17.772Z,15.31
2022-10-16T08:18:55.461Z,15.34
2022-10-16T08:21:32.403Z,15.33
2022-10-16T08:24:10.119Z,15.38
2022-10-16T08:26:47.202Z,15.40
2022-10-16T08:29:24.260Z,15.41
2022-10-16T08:32:03.750Z,15.46
2022-10-16T08:34:41.573Z,15.45
2022-10-16T08:37:18.964Z,15.50
2022-10-16T08:39:58.175Z,15.50
2022-10-16T08:42:56.555Z,15.56
2022-10-16T08:45:48.697Z,15.58
2022-10-16T08:48:34.529Z,15.62
2022-10-16T08:51:15.847Z,15.60
2022-10-16T08:53:58.508Z,15.64
2022-10-16T08:56:36.330Z,15.62
2022-10-16T08:59:18.476Z,15.67
2022-10-16T09:01:57.009Z,15.68
2022-10-16T09:05:05.968Z,15.74
2022-10-16T09:07:51.613Z,15.68
2022-10-16T09:10:43.757Z,15.72
2022-10-16T09:13:30.389Z,15.75
2022-10-16T09:16:23.100Z,15.78
2022-10-16T09:19:13.538Z,15.80
2022-10-16T09:21:54.907Z,15.83
2022-10-16T09:24:34.688Z,15.83
2022-10-16T09:27:15.308Z,15.85
2022-10-16T09:29:54.968Z,15.80
2022-10-16T09:32:36.135Z,15.78
2022-10-16T09:35:22.462Z,15.83
2022-10-16T09:38:01.848Z,15.80
2022-10-16T09:40:41.742Z,15.81
2022-10-16T09:43:29.867Z,15.84
2022-10-16T09:46:09.784Z,15.80
2022-10-16T09:48:52.478Z,15.81
2022-10-16T09:51:32.619Z,15.80
2022-10-16T09:54:26.058Z,15.84
2022-10-16T09:57:11.338Z,15.87
2022-10-16T09:59:53.068Z,15.79
2022-10-16T10:02:39.379Z,15.86
2022-10-16T10:05:25.298Z,15.80
2022-10-16T10:08:07.413Z,15.84
2022-10-16T10:10:47.939Z,15.84
2022-10-16T10:13:28.367Z,15.89
2022-10-16T10:16:07.669Z,15.86
2022-10-16T10:18:47.245Z,15.89
2022-10-16T10:21:23.818Z,15.87
2022-10-16T10:24:01.939Z,15.91
2022-10-16T10:26:45.313Z,15.96
2022-10-16T10:29:40.602Z,15.97
2022-10-16T10:32:31.774Z,16.01
2022-10-16T10:35:23.116Z,16.03
2022-10-16T10:38:25.089Z,16.06
2022-10-16T10:41:19.168Z,16.08
2022-10-16T10:44:12.324Z,16.10
2022-10-16T10:46:59.431Z,16.12
2022-10-16T10:49:52.914Z,16.15
2022-10-16T10:52:53.503Z,16.15
2022-10-16T10:55:43.714Z,16.18
2022-10-16T10:59:06.653Z,16.21
2022-10-16T11:01:54.053Z,16.19
2022-10-16T11:05:06.555Z,16.22
2022-10-16T11:07:49.455Z,16.28
2022-10-16T11:10:31.733Z,16.37
2022-10-16T11:13:28.993Z,16.44
2022-10-16T11:16:21.551Z,16.58
2022-10-16T11:19:07.703Z,16.68
2022-10-16T11:21:53.625Z,16.82
2022-10-16T11:24:45.659Z,16.86
2022-10-16T11:27:28.744Z,16.90
2022-10-16T11:30:16.284Z,17.02
2022-10-16T11:33:18.444Z,17.11
2022-10-16T11:36:04.544Z,17.16
2022-10-16T11:38:55.243Z,17.17
2022-10-16T11:41:39.174Z,17.17
2022-10-16T11:44:38.722Z,17.22
2022-10-16T11:47:58.737Z,17.29
2022-10-16T11:50:37.470Z,17.33
2022-10-16T11:53:26.466Z,17.31
2022-10-16T11:56:03.785Z,17.34
2022-10-16T11:58:46.495Z,17.43
2022-10-16T12:01:33.158Z,17.52
2022-10-16T12:04:28.824Z,17.57
2022-10-16T12:07:15.245Z,17.65
2022-10-16T12:09:52.530Z,17.75
2022-10-16T12:12:33.042Z,17.79
2022-10-16T12:15:54.592Z,17.87
2022-10-16T12:18:27.240Z,17.96
2022-10-16T12:21:06.970Z,18.02
2022-10-16T12:23:56.843Z,18.15
2022-10-16T12:26:37.390Z,18.19
2022-10-16T12:29:26.699Z,18.40
2022-10-16T12:32:03.611Z,18.56
2022-10-16T12:34:46.644Z,18.78
2022-10-16T12:37:28.804Z,19.01
2022-10-16T12:40:19.643Z,19.08
2022-10-16T12:42:56.579Z,19.17
2022-10-16T12:45:36.627Z,19.28
2022-10-16T12:48:32.556Z,19.25
2022-10-16T12:51:29.293Z,19.21
2022-10-16T12:54:08.154Z,19.18
2022-10-16T12:57:03.254Z,19.36
2022-10-16T12:59:52.721Z,19.38
2022-10-16T13:03:12.619Z,19.36
2022-10-16T13:06:07.196Z,19.38
2022-10-16T13:09:14.194Z,19.47
2022-10-16T13:12:14.153Z,19.59
2022-10-16T13:15:16.250Z,19.79
2022-10-16T13:18:05.343Z,19.88
2022-10-16T13:21:09.601Z,19.82
2022-10-16T13:23:57.581Z,19.82
2022-10-16T13:26:48.985Z,19.64
2022-10-16T13:29:33.803Z,19.58
2022-10-16T13:32:15.343Z,19.32
2022-10-16T13:34:54.873Z,19.28
2022-10-16T13:37:32.049Z,19.13
2022-10-16T13:40:23.952Z,19.00
2022-10-16T13:43:04.144Z,18.84
2022-10-16T13:45:43.728Z,18.78
2022-10-16T13:48:21.283Z,18.72
2022-10-16T13:51:16.467Z,18.67
2022-10-16T13:53:54.577Z,18.66
2022-10-16T13:56:35.823Z,18.62
2022-10-16T13:59:29.994Z,18.62
2022-10-16T14:02:24.606Z,18.55
2022-10-16T14:05:03.223Z,18.57
2022-10-16T14:07:41.810Z,18.57
2022-10-16T14:10:29.984Z,18.57
2022-10-16T14:13:11.101Z,18.48
2022-10-16T14:15:56.073Z,18.45
2022-10-16T14:18:36.055Z,18.44
2022-10-16T14:21:21.182Z,18.42
2022-10-16T14:23:58.485Z,18.36
2022-10-16T14:26:51.009Z,18.40
2022-10-16T14:29:30.257Z,18.44
2022-10-16T14:32:27.803Z,18.52
2022-10-16T14:35:26.813Z,18.66
2022-10-16T14:38:05.994Z,18.76
2022-10-16T14:40:51.220Z,18.80
2022-10-16T14:43:37.000Z,18.91
2022-10-16T14:46:17.999Z,18.93
2022-10-16T14:49:00.092Z,18.95
2022-10-16T14:51:42.331Z,19.00
2022-10-16T14:54:22.214Z,19.02
2022-10-16T14:57:03.052Z,19.00
2022-10-16T14:59:45.509Z,18.95
2022-10-16T15:02:31.860Z,18.94
2022-10-16T15:05:19.522Z,18.87
2022-10-16T15:07:59.931Z,18.80
2022-10-16T15:10:43.113Z,18.78
2022-10-16T15:13:19.868Z,18.69
2022-10-16T15:15:59.467Z,18.62
2022-10-16T15:18:36.225Z,18.56
2022-10-16T15:21:19.003Z,18.49
2022-10-16T15:23:58.344Z,18.42
2022-10-16T15:26:35.943Z,18.35
2022-10-16T15:29:13.095Z,18.26
2022-10-16T15:31:51.986Z,18.16
2022-10-16T15:34:28.693Z,18.10
2022-10-16T15:37:07.960Z,18.03
2022-10-16T15:39:47.587Z,17.93
2022-10-16T15:42:25.412Z,17.83
2022-10-16T15:45:02.191Z,17.71
2022-10-16T15:47:42.322Z,17.62
2022-10-16T15:50:25.943Z,17.51
2022-10-16T15:53:06.415Z,17.38
2022-10-16T15:55:45.869Z,17.17
2022-10-16T15:58:23.193Z,17.09
2022-10-16T16:01:02.450Z,17.03
2022-10-16T16:03:43.141Z,16.94
2022-10-16T16:06:20.357Z,16.82
2022-10-16T16:08:58.021Z,16.71
2022-10-16T16:11:39.940Z,16.65
2022-10-16T16:14:18.344Z,16.56
2022-10-16T16:16:55.202Z,16.48
2022-10-16T16:19:33.196Z,16.36
2022-10-16T16:22:12.383Z,16.23
2022-10-16T16:24:50.557Z,16.14
2022-10-16T16:27:31.213Z,16.08
2022-10-16T16:30:14.058Z,15.99
2022-10-16T16:32:52.268Z,15.92
2022-10-16T16:35:29.570Z,15.81
2022-10-16T16:38:06.358Z,15.77
2022-10-16T16:40:43.487Z,15.68
2022-10-16T16:43:22.937Z,15.69
2022-10-16T16:46:01.066Z,15.66
2022-10-16T16:48:38.838Z,15.62
2022-10-16T16:51:22.231Z,15.55
2022-10-16T16:53:59.894Z,15.47
2022-10-16T16:56:37.238Z,15.38
2022-10-16T16:59:20.981Z,15.33
2022-10-16T17:01:58.853Z,15.24
2022-10-16T17:04:36.151Z,15.15
2022-10-16T17:07:13.964Z,15.11
2022-10-16T17:09:51.531Z,14.99
2022-10-16T17:12:29.138Z,14.98
2022-10-16T17:15:11.271Z,14.89
2022-10-16T17:17:49.786Z,14.85
2022-10-16T17:20:27.768Z,14.74
2022-10-16T17:23:05.300Z,14.69
2022-10-16T17:25:46.275Z,14.61
2022-10-16T17:28:24.328Z,14.59
2022-10-16T17:31:18.143Z,14.55
2022-10-16T17:33:56.501Z,14.47
2022-10-16T17:36:36.240Z,14.45
2022-10-16T17:39:18.650Z,14.43
2022-10-16T17:41:56.585Z,14.39
2022-10-16T17:44:35.420Z,14.39
2022-10-16T17:47:16.865Z,14.40
2022-10-16T17:49:55.118Z,14.36
2022-10-16T17:52:33.051Z,14.35
2022-10-16T17:55:13.219Z,14.37
2022-10-16T17:57:51.142Z,14.37
2022-10-16T18:00:30.683Z,14.37
2022-10-16T18:03:15.700Z,14.39
2022-10-16T18:05:53.569Z,14.36
2022-10-16T18:08:37.370Z,14.36
2022-10-16T18:11:21.530Z,14.36
2022-10-16T18:14:03.502Z,14.31
2022-10-16T18:16:43.169Z,14.30
2022-10-16T18:19:25.035Z,14.23
2022-10-16T18:22:04.802Z,14.17
2022-10-16T18:24:43.049Z,14.10
2022-10-16T18:27:21.884Z,14.05
2022-10-16T18:30:01.494Z,13.99
2022-10-16T18:32:39.451Z,13.95
2022-10-16T18:35:19.972Z,13.93
2022-10-16T18:38:01.862Z,13.93
2022-10-16T18:40:42.381Z,13.89
2022-10-16T18:43:21.959Z,13.84
2022-10-16T18:46:05.062Z,13.74
2022-10-16T18:48:44.588Z,13.67
2022-10-16T18:51:28.310Z,13.60
2022-10-16T18:54:08.742Z,13.58
2022-10-16T18:56:52.562Z,13.53
2022-10-16T18:59:32.820Z,13.51
2022-10-16T19:02:16.759Z,13.49
2022-10-16T19:04:54.912Z,13.45
2022-10-16T19:07:38.209Z,13.41
2022-10-16T19:10:16.630Z,13.38
2022-10-16T19:12:57.705Z,13.38
2022-10-16T19:15:36.369Z,13.40
2022-10-16T19:18:14.079Z,13.38
2022-10-16T19:20:52.760Z,13.38
2022-10-16T19:23:33.048Z,13.41
2022-10-16T19:26:14.704Z,13.43
2022-10-16T19:28:53.630Z,13.42
2022-10-16T19:31:34.754Z,13.43
2022-10-16T19:34:14.252Z,13.48
2022-10-16T19:36:52.504Z,13.47
